createdAt,value
2022-10-14T00:00:26.025Z,56.50
2022-10-14T00:04:17.822Z,52.78
2022-10-14T00:07:49.831Z,52.55
2022-10-14T00:11:25.484Z,50.97
2022-10-14T00:14:57.202Z,50.43
2022-10-14T00:18:29.082Z,58.13
2022-10-14T00:22:00.732Z,50.75
2022-10-14T00:25:37.636Z,54.77
2022-10-14T00:29:13.569Z,53.30
2022-10-14T00:32:45.387Z,51.33
2022-10-14T00:36:20.160Z,49.20
2022-10-14T00:39:56.874Z,51.80
2022-10-14T00:43:29.483Z,53.60
2022-10-14T00:47:01.525Z,60.42
2022-10-14T00:50:34.718Z,51.05
2022-10-14T00:54:08.015Z,54.97
2022-10-14T00:57:39.724Z,57.60
2022-10-14T01:01:11.956Z,57.15
2022-10-14T01:04:46.933Z,55.38
2022-10-14T01:08:31.246Z,55.43
2022-10-14T01:12:38.637Z,51.70
2022-10-14T01:16:39.405Z,44.25
2022-10-14T01:20:41.619Z,46.53
2022-10-14T01:24:42.649Z,53.73
2022-10-14T01:28:29.238Z,49.93
2022-10-14T01:32:11.073Z,51.42
2022-10-14T01:36:04.187Z,48.42
2022-10-14T01:39:42.625Z,56.03
2022-10-14T01:43:17.539Z,52.90
2022-10-14T01:46:54.178Z,56.53
2022-10-14T01:50:28.849Z,54.83
2022-10-14T01:54:06.312Z,53.77
2022-10-14T01:57:41.510Z,50.70
2022-10-14T02:01:13.348Z,48.38
2022-10-14T02:04:45.172Z,50.08
2022-10-14T02:08:45.105Z,49.80
2022-10-14T02:12:31.952Z,44.63
2022-10-14T02:16:14.959Z,46.20
2022-10-14T02:20:29.727Z,47.67
2022-10-14T02:24:09.778Z,47.77
2022-10-14T02:27:44.104Z,47.97
2022-10-14T02:31:18.707Z,49.05
2022-10-14T02:34:54.677Z,43.92
2022-10-14T02:38:26.746Z,50.33
2022-10-14T02:41:58.522Z,50.23
2022-10-14T02:45:30.379Z,48.35
2022-10-14T02:49:02.203Z,49.60
2022-10-14T02:52:34.123Z,46.90
2022-10-14T02:56:06.326Z,51.07
2022-10-14T02:59:39.682Z,64.97
2022-10-14T03:03:11.649Z,53.30
2022-10-14T03:06:43.532Z,51.70
2022-10-14T03:10:15.675Z,48.57
2022-10-14T03:13:47.505Z,50.22
2022-10-14T03:17:19.160Z,46.97
2022-10-14T03:20:51.315Z,56.00
2022-10-14T03:24:23.237Z,45.80
2022-10-14T03:27:55.203Z,44.83
2022-10-14T03:31:26.842Z,49.30
2022-10-14T03:34:58.697Z,46.03
2022-10-14T03:38:30.420Z,46.07
2022-10-14T03:42:03.213Z,48.72
2022-10-14T03:45:34.897Z,47.13
2022-10-14T03:49:06.748Z,48.07
2022-10-14T03:52:44.849Z,48.63
2022-10-14T03:56:18.453Z,44.75
2022-10-14T03:59:50.328Z,43.55
2022-10-14T04:03:22.171Z,45.23
2022-10-14T04:06:54.730Z,47.70
2022-10-14T04:10:26.824Z,46.72
2022-10-14T04:13:59.508Z,48.72
2022-10-14T04:17:31.389Z,45.70
2022-10-14T04:21:06.052Z,47.63
2022-10-14T04:24:42.766Z,46.25
2022-10-14T04:28:14.500Z,48.70
2022-10-14T04:31:46.440Z,48.57
2022-10-14T04:35:18.142Z,51.10
2022-10-14T04:38:49.970Z,49.30
2022-10-14T04:42:21.855Z,47.85
2022-10-14T04:45:54.533Z,51.87
2022-10-14T04:49:26.224Z,48.97
2022-10-14T04:52:58.156Z,52.67
2022-10-14T04:56:29.829Z,52.10
2022-10-14T05:00:03.725Z,53.17
2022-10-14T05:03:40.182Z,53.63
2022-10-14T05:07:12.355Z,55.17
2022-10-14T05:10:44.310Z,53.67
2022-10-14T05:14:16.338Z,53.97
2022-10-14T05:17:48.422Z,48.13
2022-10-14T05:21:20.352Z,52.97
2022-10-14T05:24:51.980Z,56.95
2022-10-14T05:28:24.069Z,46.90
2022-10-14T05:31:55.762Z,49.00
2022-10-14T05:35:46.730Z,44.33
2022-10-14T05:39:19.534Z,50.80
2022-10-14T05:42:51.352Z,47.13
2022-10-14T05:46:23.090Z,47.23
2022-10-14T05:49:56.652Z,50.33
2022-10-14T05:53:28.732Z,57.00
2022-10-14T05:57:00.544Z,56.93
2022-10-14T06:00:32.269Z,47.13
2022-10-14T06:04:04.911Z,47.20
2022-10-14T06:07:37.162Z,50.03
2022-10-14T06:11:09.283Z,51.70
2022-10-14T06:14:41.219Z,51.57
2022-10-14T06:18:13.165Z,42.28
2022-10-14T06:21:45.013Z,50.47
2022-10-14T06:25:16.858Z,46.97
2022-10-14T06:28:48.708Z,47.13
2022-10-14T06:32:23.331Z,49.65
2022-10-14T06:35:55.539Z,39.38
2022-10-14T06:39:27.823Z,37.20
2022-10-14T06:43:00.795Z,41.63
2022-10-14T06:46:32.674Z,38.85
2022-10-14T06:50:04.938Z,38.80
2022-10-14T06:53:36.888Z,36.10
2022-10-14T06:57:08.605Z,31.83
2022-10-14T07:00:44.289Z,38.45
2022-10-14T07:04:18.819Z,32.25
2022-10-14T07:07:50.856Z,42.33
2022-10-14T07:11:22.781Z,32.43
2022-10-14T07:14:54.840Z,35.50
2022-10-14T07:18:26.693Z,29.05
2022-10-14T07:21:58.529Z,33.13
2022-10-14T07:25:30.265Z,32.40
2022-10-14T07:29:04.720Z,30.08
2022-10-14T07:32:39.463Z,29.98
2022-10-14T07:36:18.468Z,28.45
2022-10-14T07:39:53.445Z,32.60
2022-10-14T07:43:25.472Z,29.03
2022-10-14T07:46:58.821Z,29.65
2022-10-14T07:50:30.655Z,29.83
2022-10-14T07:54:04.656Z,34.83
2022-10-14T07:57:36.695Z,23.70
2022-10-14T08:01:08.515Z,30.02
2022-10-14T08:04:40.433Z,30.92
2022-10-14T08:08:12.321Z,29.48
2022-10-14T08:11:45.698Z,28.53
2022-10-14T08:15:17.743Z,26.88
2022-10-14T08:18:50.678Z,27.55
2022-10-14T08:22:22.684Z,25.35
2022-10-14T08:25:57.853Z,23.80
2022-10-14T08:29:29.944Z,27.13
2022-10-14T08:33:01.998Z,26.23
2022-10-14T08:36:33.783Z,24.55
2022-10-14T08:40:06.600Z,25.73
2022-10-14T08:44:16.117Z,25.67
2022-10-14T08:47:48.733Z,22.92
2022-10-14T08:51:21.616Z,25.80
2022-10-14T08:55:00.967Z,24.15
2022-10-14T08:58:40.043Z,22.47
2022-10-14T09:02:21.798Z,25.13
2022-10-14T09:05:59.830Z,24.30
2022-10-14T09:09:49.923Z,23.95
2022-10-14T09:13:47.237Z,26.50
2022-10-14T09:17:25.079Z,18.57
2022-10-14T09:20:58.993Z,21.13
2022-10-14T09:24:35.990Z,22.23
2022-10-14T09:28:11.640Z,20.98
2022-10-14T09:31:43.549Z,23.13
2022-10-14T09:35:23.639Z,20.90
2022-10-14T09:38:56.322Z,21.60
2022-10-14T09:42:44.183Z,17.17
2022-10-14T09:46:17.773Z,18.17
2022-10-14T09:49:49.912Z,15.23
2022-10-14T09:53:34.130Z,19.73
2022-10-14T09:57:08.185Z,20.90
2022-10-14T10:00:40.616Z,20.38
2022-10-14T10:04:33.282Z,21.58
2022-10-14T10:08:26.733Z,17.10
2022-10-14T10:11:58.578Z,17.77
2022-10-14T10:15:30.776Z,20.38
2022-10-14T10:19:32.327Z,22.40
2022-10-14T10:23:22.837Z,22.27
2022-10-14T10:26:54.580Z,27.00
2022-10-14T10:30:33.444Z,24.15
2022-10-14T10:34:21.829Z,23.60
2022-10-14T10:38:14.792Z,24.93
2022-10-14T10:42:07.171Z,20.93
2022-10-14T10:46:08.373Z,17.75
2022-10-14T10:50:25.140Z,22.02
2022-10-14T10:54:06.439Z,18.20
2022-10-14T10:57:46.051Z,19.17
2022-10-14T11:01:55.734Z,20.52
2022-10-14T11:05:44.956Z,16.08
2022-10-14T11:09:50.788Z,14.65
2022-10-14T11:13:34.580Z,20.43
2022-10-14T11:17:12.033Z,18.95
2022-10-14T11:21:04.113Z,14.82
2022-10-14T11:25:00.884Z,20.45
2022-10-14T11:28:55.256Z,17.30
2022-10-14T11:33:01.532Z,13.80
2022-10-14T11:37:03.238Z,13.23
2022-10-14T11:40:42.217Z,17.65
2022-10-14T11:48:23.232Z,15.73
2022-10-14T11:51:58.365Z,16.10
2022-10-14T11:55:36.050Z,17.88
2022-10-14T11:59:43.340Z,20.35
2022-10-14T12:03:29.821Z,15.93
2022-10-14T12:07:10.269Z,18.80
2022-10-14T12:10:57.748Z,17.08
2022-10-14T12:14:39.997Z,20.73
2022-10-14T12:18:12.335Z,23.90
2022-10-14T12:22:08.993Z,21.23
2022-10-14T12:25:57.106Z,24.23
2022-10-14T12:29:33.729Z,24.65
2022-10-14T12:33:09.235Z,25.60
2022-10-14T12:36:43.478Z,19.00
2022-10-14T12:40:15.385Z,23.47
2022-10-14T12:44:05.658Z,24.43
2022-10-14T12:47:37.803Z,21.83
2022-10-14T12:51:14.656Z,25.65
2022-10-14T12:54:48.697Z,26.92
2022-10-14T12:58:27.771Z,28.43
2022-10-14T13:02:17.221Z,22.10
2022-10-14T13:05:49.042Z,23.70
2022-10-14T13:09:32.210Z,21.92
2022-10-14T13:13:53.409Z,23.57
2022-10-14T13:17:47.073Z,22.37
2022-10-14T13:21:37.167Z,26.50
2022-10-14T13:25:19.609Z,20.08
2022-10-14T13:29:15.108Z,22.05
2022-10-14T13:33:03.723Z,24.50
2022-10-14T13:36:39.923Z,21.10
2022-10-14T13:40:17.869Z,24.10
2022-10-14T13:43:54.578Z,24.60
2022-10-14T13:47:26.511Z,23.60
2022-10-14T13:51:23.932Z,19.83
2022-10-14T13:55:22.128Z,24.13
2022-10-14T13:58:54.199Z,24.20
2022-10-14T14:02:30.126Z,23.80
2022-10-14T14:06:08.875Z,26.07
2022-10-14T14:09:47.853Z,24.98
2022-10-14T14:13:19.809Z,25.38
2022-10-14T14:16:58.195Z,24.67
2022-10-14T14:20:31.143Z,25.43
2022-10-14T14:24:10.842Z,23.48
2022-10-14T14:27:46.337Z,20.30
2022-10-14T14:31:21.426Z,25.67
2022-10-14T14:38:33.257Z,23.80
2022-10-14T14:42:05.079Z,28.98
2022-10-14T14:45:46.582Z,24.75
2022-10-14T14:49:25.464Z,26.03
2022-10-14T14:53:02.978Z,25.48
2022-10-14T14:56:48.102Z,29.08
2022-10-14T15:00:20.378Z,27.42
2022-10-14T15:04:13.843Z,31.83
2022-10-14T15:07:49.800Z,29.27
2022-10-14T15:11:22.882Z,31.25
2022-10-14T15:15:00.211Z,35.30
2022-10-14T15:18:32.247Z,30.53
2022-10-14T15:22:24.086Z,33.20
2022-10-14T15:25:58.813Z,33.25
2022-10-14T15:29:30.677Z,32.35
2022-10-14T15:33:12.257Z,28.90
2022-10-14T15:36:44.373Z,34.00
2022-10-14T15:40:21.608Z,36.55
2022-10-14T15:43:53.626Z,40.88
2022-10-14T15:47:25.531Z,43.87
2022-10-14T15:50:57.647Z,41.42
2022-10-14T15:54:29.417Z,38.58
2022-10-14T15:58:01.857Z,50.72
2022-10-14T16:01:37.196Z,37.37
2022-10-14T16:05:25.169Z,54.08
2022-10-14T16:08:56.831Z,37.08
2022-10-14T16:12:28.739Z,42.28
2022-10-14T16:16:03.452Z,37.03
2022-10-14T16:19:35.388Z,33.90
2022-10-14T16:23:07.434Z,42.45
2022-10-14T16:26:40.057Z,37.30
2022-10-14T16:30:11.874Z,39.00
2022-10-14T16:33:45.791Z,57.30
2022-10-14T16:37:17.757Z,45.55
2022-10-14T16:41:02.840Z,40.88
2022-10-14T16:44:36.473Z,48.60
2022-10-14T16:48:08.974Z,35.23
2022-10-14T16:51:42.897Z,37.63
2022-10-14T16:55:15.093Z,37.38
2022-10-14T16:58:46.747Z,39.95
2022-10-14T17:02:19.230Z,47.87
2022-10-14T17:05:57.752Z,48.50
2022-10-14T17:09:29.895Z,41.70
2022-10-14T17:13:02.129Z,46.35
2022-10-14T17:16:34.117Z,38.63
2022-10-14T17:20:09.370Z,46.78
2022-10-14T17:23:43.432Z,41.45
2022-10-14T17:27:16.057Z,45.47
2022-10-14T17:30:48.053Z,45.00
2022-10-14T17:34:19.794Z,46.95
2022-10-14T17:37:51.679Z,47.33
2022-10-14T17:41:24.953Z,52.65
2022-10-14T17:44:56.758Z,50.40
2022-10-14T17:49:44.927Z,57.58
2022-10-14T17:52:52.495Z,51.30
2022-10-14T17:56:25.278Z,49.60
2022-10-14T17:59:57.267Z,48.67
2022-10-14T18:03:29.046Z,48.97
2022-10-14T18:07:01.307Z,46.35
2022-10-14T18:10:36.468Z,45.85
2022-10-14T18:14:12.026Z,52.33
2022-10-14T18:17:43.810Z,44.28
2022-10-14T18:21:15.588Z,43.83
2022-10-14T18:24:47.440Z,45.33
2022-10-14T18:28:19.290Z,49.30
2022-10-14T18:35:23.865Z,48.78
2022-10-14T18:39:00.769Z,53.87
2022-10-14T18:42:32.512Z,48.67
2022-10-14T18:46:15.082Z,48.85
2022-10-14T18:49:48.341Z,48.40
2022-10-14T18:53:20.120Z,56.07
2022-10-14T18:56:52.841Z,60.17
2022-10-14T19:00:25.043Z,56.08
2022-10-14T19:03:57.180Z,60.40
2022-10-14T19:07:29.029Z,61.17
2022-10-14T19:11:05.708Z,54.80
2022-10-14T19:14:37.624Z,61.08
2022-10-14T19:18:12.744Z,55.38
2022-10-14T19:21:46.391Z,64.47
2022-10-14T19:25:18.879Z,62.67
2022-10-14T19:28:52.135Z,61.67
2022-10-14T19:32:24.080Z,66.97
2022-10-14T19:36:00.094Z,67.53
2022-10-14T19:39:31.777Z,69.50
2022-10-14T19:43:03.734Z,67.20
2022-10-14T19:46:35.349Z,69.30
2022-10-14T19:50:07.930Z,73.50
2022-10-14T19:53:39.723Z,66.90
2022-10-14T19:57:11.482Z,68.55
2022-10-14T20:00:43.325Z,68.72
2022-10-14T20:04:15.166Z,65.17
2022-10-14T20:07:46.989Z,61.03
2022-10-14T20:11:22.392Z,63.42
2022-10-14T20:14:55.062Z,62.45
2022-10-14T20:18:27.963Z,61.90
2022-10-14T20:22:01.578Z,62.13
2022-10-14T20:25:35.759Z,64.40
2022-10-14T20:29:07.615Z,62.75
2022-10-14T20:32:39.726Z,68.50
2022-10-14T20:36:16.938Z,65.37
2022-10-14T20:39:49.507Z,68.10
2022-10-14T20:43:21.317Z,66.50
2022-10-14T20:46:53.207Z,60.20
2022-10-14T20:50:24.914Z,66.40
2022-10-14T20:54:02.614Z,77.47
2022-10-14T20:57:36.081Z,63.97
2022-10-14T21:01:13.620Z,66.37
2022-10-14T21:04:48.055Z,67.37
2022-10-14T21:08:20.152Z,69.82
2022-10-14T21:15:26.835Z,68.17
2022-10-14T21:19:09.710Z,63.73
2022-10-14T21:22:41.539Z,55.63
2022-10-14T21:26:13.276Z,63.90
2022-10-14T21:29:45.135Z,74.27
2022-10-14T21:33:17.077Z,71.03
2022-10-14T21:36:49.011Z,75.63
2022-10-14T21:40:20.655Z,74.55
2022-10-14T21:43:52.663Z,76.83
2022-10-14T21:47:24.434Z,69.50
2022-10-14T21:51:08.387Z,67.75
2022-10-14T21:54:40.580Z,65.10
2022-10-14T21:58:12.580Z,73.30
2022-10-14T22:01:44.409Z,66.37
2022-10-14T22:05:16.174Z,73.95
2022-10-14T22:08:50.717Z,67.57
2022-10-14T22:12:22.496Z,65.57
2022-10-14T22:15:54.682Z,65.63
2022-10-14T22:19:26.667Z,67.70
2022-10-14T22:22:59.594Z,66.80
2022-10-14T22:26:32.188Z,68.77
2022-10-14T22:30:05.372Z,69.43
2022-10-14T22:33:39.111Z,67.63
2022-10-14T22:37:10.907Z,75.47
2022-10-14T22:40:42.721Z,81.83
2022-10-14T22:44:14.333Z,71.70
2022-10-14T22:47:46.199Z,79.82
2022-10-14T22:51:20.116Z,77.82
2022-10-14T22:54:51.995Z,73.90
2022-10-14T22:58:23.673Z,80.67
2022-10-14T23:01:55.523Z,72.80
2022-10-14T23:05:27.201Z,78.47
2022-10-14T23:09:01.957Z,74.47
2022-10-14T23:12:33.838Z,72.47
2022-10-14T23:16:10.591Z,78.18
2022-10-14T23:19:42.351Z,72.78
2022-10-14T23:23:14.229Z,79.27
2022-10-14T23:26:45.838Z,75.70
2022-10-14T23:30:17.706Z,81.25
2022-10-14T23:33:51.451Z,83.88
2022-10-14T23:37:24.620Z,87.93
2022-10-14T23:40:58.930Z,85.10
2022-10-14T23:44:36.022Z,85.60
2022-10-14T23:48:07.692Z,78.37
2022-10-14T23:51:39.625Z,87.93
2022-10-14T23:55:11.799Z,79.28
2022-10-14T23:58:43.781Z,82.47
